Time;durP1;ratioP1;P1;durP2;ratioP2;P2;SDS_P1;SDS_P2;PMS_P1;PMS_P2;Temp;Humidity;BMP_temperature;BMP_pressure;BME280_temperature;BME280_humidity;BME280_pressure;Samples;Min_cycle;Max_cycle;Signal;HPM_P1;HPM_P2
2023/11/25 00:00:55;;;;;;;2.47;0.50;;;3.70;1.00;;;;;;6271185;22;20019;-80
2023/11/25 00:03:22;;;;;;;0.43;0.32;;;3.70;1.00;;;;;;6244592;22;20098;-80
2023/11/25 00:05:49;;;;;;;0.52;0.38;;;3.60;1.00;;;;;;6244852;22;20098;-80
2023/11/25 00:08:16;;;;;;;0.75;0.50;;;3.60;1.00;;;;;;6243395;22;20054;-80
2023/11/25 00:10:43;;;;;;;0.47;0.40;;;3.60;1.00;;;;;;6220066;22;20023;-80
2023/11/25 00:13:10;;;;;;;1.20;0.43;;;3.50;1.00;;;;;;6243993;22;20025;-80
2023/11/25 00:15:38;;;;;;;0.65;0.40;;;3.50;1.00;;;;;;6240814;22;20474;-80
2023/11/25 00:18:06;;;;;;;0.85;0.50;;;3.50;1.00;;;;;;6216414;22;20030;-80
2023/11/25 00:20:36;;;;;;;0.57;0.35;;;3.40;1.00;;;;;;6240717;22;20045;-80
2023/11/25 00:23:03;;;;;;;1.38;0.32;;;3.40;1.00;;;;;;6239333;22;20038;-80
2023/11/25 00:25:30;;;;;;;0.30;0.30;;;3.30;1.00;;;;;;6215647;22;20530;-80
2023/11/25 00:27:58;;;;;;;0.20;0.20;;;3.30;1.00;;;;;;6240217;22;20090;-80
2023/11/25 00:30:25;;;;;;;0.40;0.30;;;3.20;1.00;;;;;;6241137;22;20483;-80
2023/11/25 00:32:52;;;;;;;0.65;0.30;;;3.10;1.00;;;;;;6215471;22;20085;-80
2023/11/25 00:35:19;;;;;;;0.30;0.30;;;3.10;1.00;;;;;;6218605;22;20077;-80
2023/11/25 00:37:46;;;;;;;1.48;0.40;;;3.00;1.00;;;;;;6265008;22;20019;-80
2023/11/25 00:40:15;;;;;;;0.70;0.45;;;3.00;1.00;;;;;;6266054;22;20624;-80
2023/11/25 00:42:42;;;;;;;0.20;0.20;;;2.90;1.00;;;;;;6296478;22;20027;-80
2023/11/25 00:45:10;;;;;;;0.55;0.30;;;2.90;1.00;;;;;;6240198;22;20031;-80
2023/11/25 00:47:39;;;;;;;0.38;0.30;;;2.90;1.00;;;;;;6239826;22;20026;-80
2023/11/25 00:50:10;;;;;;;0.93;0.60;;;2.80;1.00;;;;;;6266235;22;20030;-80
2023/11/25 00:52:38;;;;;;;0.43;0.40;;;2.80;1.00;;;;;;6241876;22;20055;-79
2023/11/25 00:55:06;;;;;;;1.60;0.45;;;2.80;1.00;;;;;;6219166;22;20011;-80
2023/11/25 00:57:34;;;;;;;0.75;0.52;;;2.80;1.00;;;;;;6296798;22;20023;-80
2023/11/25 01:00:01;;;;;;;1.17;0.52;;;2.80;1.00;;;;;;6244083;22;20506;-80
2023/11/25 01:02:31;;;;;;;0.45;0.40;;;2.80;1.00;;;;;;6268125;22;20027;-80
2023/11/25 01:04:58;;;;;;;0.60;0.43;;;2.80;1.00;;;;;;6240915;22;20019;-80
2023/11/25 01:07:24;;;;;;;0.63;0.40;;;2.80;1.00;;;;;;6264936;22;20023;-80
2023/11/25 01:09:51;;;;;;;1.20;0.40;;;2.80;1.00;;;;;;6238871;22;20025;-80
2023/11/25 01:12:18;;;;;;;0.88;0.50;;;2.80;1.00;;;;;;6243721;22;20326;-80
2023/11/25 01:14:46;;;;;;;1.13;0.40;;;2.70;1.00;;;;;;6269662;22;20023;-79
2023/11/25 01:17:13;;;;;;;0.80;0.30;;;2.70;1.00;;;;;;6217938;22;20084;-80
2023/11/25 01:19:39;;;;;;;0.68;0.40;;;2.70;1.00;;;;;;6293780;22;20019;-80
2023/11/25 01:22:06;;;;;;;0.68;0.30;;;2.60;1.00;;;;;;6243143;22;20126;-80
2023/11/25 01:24:33;;;;;;;1.13;1.02;;;2.60;1.00;;;;;;6243038;22;20022;-79
2023/11/25 01:27:00;;;;;;;0.63;0.45;;;2.60;1.00;;;;;;6296057;22;20026;-81
2023/11/25 01:29:27;;;;;;;1.55;0.50;;;2.60;1.00;;;;;;6243616;22;20015;-80
2023/11/25 01:31:54;;;;;;;0.50;0.35;;;2.60;1.00;;;;;;6269862;22;20315;-80
2023/11/25 01:34:21;;;;;;;0.20;0.20;;;2.50;1.00;;;;;;6244277;22;20073;-81
2023/11/25 01:36:48;;;;;;;0.50;0.30;;;2.50;1.00;;;;;;6269028;22;20031;-80
2023/11/25 01:39:15;;;;;;;0.73;0.40;;;2.50;1.00;;;;;;6217520;22;20094;-81
2023/11/25 01:41:43;;;;;;;0.45;0.40;;;2.50;1.00;;;;;;6218675;22;20035;-81
2023/11/25 01:44:12;;;;;;;0.30;0.30;;;2.40;1.00;;;;;;6243445;22;20015;-80
2023/11/25 01:46:39;;;;;;;0.70;0.43;;;2.40;1.00;;;;;;6244213;22;20023;-82
2023/11/25 01:49:09;;;;;;;0.88;0.40;;;2.40;1.00;;;;;;6244295;22;20023;-80
2023/11/25 01:51:44;;;;;;;0.30;0.30;;;2.30;1.00;;;;;;6270476;22;20099;-80
2023/11/25 01:54:14;;;;;;;0.30;0.30;;;2.30;1.00;;;;;;6242681;22;20023;-80
2023/11/25 01:56:41;;;;;;;0.82;0.40;;;2.20;1.00;;;;;;6243969;22;20121;-80
2023/11/25 01:59:08;;;;;;;0.82;0.50;;;2.20;1.00;;;;;;6243833;22;20062;-80
2023/11/25 02:01:35;;;;;;;0.32;0.30;;;2.20;1.00;;;;;;6268817;22;20029;-80
2023/11/25 02:04:02;;;;;;;0.55;0.30;;;2.10;1.00;;;;;;6217413;22;20528;-79
2023/11/25 02:06:30;;;;;;;0.38;0.38;;;2.10;1.00;;;;;;6217051;22;20019;-80
2023/11/25 02:08:57;;;;;;;0.40;0.40;;;2.00;1.00;;;;;;6241701;22;20035;-80
2023/11/25 02:11:25;;;;;;;0.75;0.43;;;2.00;1.00;;;;;;6267691;22;20116;-81
2023/11/25 02:13:52;;;;;;;0.20;0.20;;;2.00;1.00;;;;;;6268115;22;20603;-80
2023/11/25 02:16:20;;;;;;;0.40;0.40;;;2.00;1.00;;;;;;6217856;22;20118;-80
2023/11/25 02:18:47;;;;;;;0.38;0.38;;;1.90;1.00;;;;;;6244576;22;20030;-81
2023/11/25 02:21:14;;;;;;;0.70;0.35;;;1.90;1.00;;;;;;6242940;22;20580;-80
2023/11/25 02:23:41;;;;;;;0.52;0.40;;;1.90;1.00;;;;;;6294622;22;20023;-80
2023/11/25 02:26:08;;;;;;;0.30;0.30;;;1.90;1.00;;;;;;6218886;22;20098;-80
2023/11/25 02:28:35;;;;;;;1.50;0.40;;;1.90;1.00;;;;;;6265543;22;20048;-80
2023/11/25 02:31:03;;;;;;;0.50;0.40;;;1.90;1.00;;;;;;6293357;22;20534;-80
2023/11/25 02:33:36;;;;;;;0.50;0.40;;;1.90;1.00;;;;;;6268796;22;20023;-80
2023/11/25 02:36:03;;;;;;;0.93;0.57;;;2.00;1.00;;;;;;6221087;22;20069;-80
2023/11/25 02:38:30;;;;;;;0.65;0.40;;;1.90;1.00;;;;;;6217962;22;20023;-80
2023/11/25 02:40:57;;;;;;;0.88;0.60;;;1.90;1.00;;;;;;6244307;22;20023;-79
2023/11/25 02:43:24;;;;;;;1.13;0.55;;;1.90;1.00;;;;;;6218981;22;20445;-80
2023/11/25 02:45:52;;;;;;;1.17;0.80;;;1.90;1.00;;;;;;6245097;22;20417;-80
2023/11/25 02:48:19;;;;;;;0.75;0.50;;;1.90;1.00;;;;;;6220014;22;20053;-80
2023/11/25 02:50:47;;;;;;;1.67;0.68;;;1.90;1.00;;;;;;6218813;22;20228;-80
2023/11/25 02:53:14;;;;;;;1.40;0.40;;;1.90;1.00;;;;;;6267648;22;20096;-80
2023/11/25 02:55:43;;;;;;;0.30;0.30;;;1.90;1.00;;;;;;6220113;22;20031;-80
2023/11/25 02:58:11;;;;;;;0.40;0.30;;;1.90;1.00;;;;;;6246909;22;20419;-80
2023/11/25 03:00:43;;;;;;;0.40;0.30;;;1.90;1.00;;;;;;6246412;22;20027;-79
2023/11/25 03:03:13;;;;;;;1.38;0.50;;;1.80;1.00;;;;;;6222723;22;20023;-80
2023/11/25 03:05:46;;;;;;;1.30;0.30;;;1.80;1.00;;;;;;6222409;22;20102;-80
2023/11/25 03:08:13;;;;;;;;;;;1.80;1.00;;;;;;6247587;22;20333;-80
2023/11/25 03:10:43;;;;;;;0.38;0.30;;;1.80;1.00;;;;;;6271360;22;19934;-80
2023/11/25 03:13:10;;;;;;;1.55;0.68;;;1.80;1.00;;;;;;6271730;22;20393;-80
2023/11/25 03:15:38;;;;;;;1.83;0.60;;;1.70;1.00;;;;;;6246584;22;20027;-80
2023/11/25 03:18:05;;;;;;;2.05;0.80;;;1.70;1.00;;;;;;6220341;22;20030;-80
2023/11/25 03:20:33;;;;;;;3.95;0.80;;;1.80;1.00;;;;;;6246443;22;20386;-79
2023/11/25 03:23:01;;;;;;;0.45;0.30;;;1.80;1.00;;;;;;6219001;22;20073;-83
2023/11/25 03:25:29;;;;;;;2.50;0.85;;;1.80;1.00;;;;;;6270982;22;20041;-82
2023/11/25 03:27:57;;;;;;;1.20;0.57;;;1.80;1.00;;;;;;6221477;22;20628;-80
2023/11/25 03:30:26;;;;;;;2.38;1.20;;;1.70;1.00;;;;;;6246551;22;20015;-80
2023/11/25 03:32:54;;;;;;;2.22;0.77;;;1.80;1.00;;;;;;6221631;22;20047;-80
2023/11/25 03:35:21;;;;;;;1.33;0.60;;;1.70;1.00;;;;;;6271149;22;20019;-80
2023/11/25 03:37:48;;;;;;;1.80;0.70;;;1.80;1.00;;;;;;6244374;22;20076;-80
2023/11/25 03:40:15;;;;;;;2.20;0.60;;;1.80;1.00;;;;;;6244323;22;20030;-80
2023/11/25 03:42:44;;;;;;;1.13;0.80;;;1.70;1.00;;;;;;6270798;22;20027;-80
2023/11/25 03:45:15;;;;;;;1.38;0.70;;;1.80;1.00;;;;;;6271670;22;20018;-80
2023/11/25 03:47:44;;;;;;;1.08;0.57;;;1.70;1.00;;;;;;6245901;22;20058;-80
2023/11/25 03:50:15;;;;;;;0.50;0.50;;;1.70;1.00;;;;;;6246078;22;20080;-80
2023/11/25 03:52:42;;;;;;;1.48;0.90;;;1.70;1.00;;;;;;6245108;22;20724;-80
2023/11/25 03:55:09;;;;;;;0.98;0.55;;;1.70;1.00;;;;;;6220526;22;20457;-80
2023/11/25 03:57:38;;;;;;;1.10;0.50;;;1.70;1.00;;;;;;6270392;22;20098;-80
2023/11/25 04:00:14;;;;;;;2.97;0.80;;;1.60;1.00;;;;;;6246143;22;20019;-80
2023/11/25 04:02:47;;;;;;;0.60;0.47;;;1.60;1.00;;;;;;6297999;22;20027;-80
2023/11/25 04:05:16;;;;;;;0.98;0.50;;;1.60;1.00;;;;;;6271619;22;20011;-81
2023/11/25 04:07:43;;;;;;;1.25;0.80;;;1.70;1.00;;;;;;6296536;22;20615;-80
2023/11/25 04:10:15;;;;;;;1.27;0.43;;;1.60;1.00;;;;;;6270795;22;20399;-80
2023/11/25 04:12:43;;;;;;;0.68;0.52;;;1.60;1.00;;;;;;6221813;22;20030;-80
2023/11/25 04:15:11;;;;;;;0.55;0.40;;;1.60;1.00;;;;;;6270859;22;20019;-80
2023/11/25 04:17:41;;;;;;;0.43;0.38;;;1.60;1.00;;;;;;6219119;22;20344;-80
2023/11/25 04:20:13;;;;;;;1.10;0.50;;;1.60;1.00;;;;;;6221326;22;20046;-80
2023/11/25 04:22:45;;;;;;;0.75;0.40;;;1.50;1.00;;;;;;6246275;22;20023;-80
2023/11/25 04:25:13;;;;;;;0.30;0.30;;;1.50;1.00;;;;;;6245739;22;20606;-80
2023/11/25 04:27:44;;;;;;;0.40;0.40;;;1.50;1.00;;;;;;6244667;22;20015;-80
2023/11/25 04:30:11;;;;;;;0.40;0.40;;;1.40;1.00;;;;;;6270767;22;20076;-80
2023/11/25 04:32:39;;;;;;;0.30;0.30;;;1.40;1.00;;;;;;6270743;22;20027;-81
2023/11/25 04:35:07;;;;;;;0.35;0.28;;;1.40;1.00;;;;;;6246023;22;20023;-80
2023/11/25 04:37:34;;;;;;;0.40;0.30;;;1.40;1.00;;;;;;6218786;22;20023;-81
2023/11/25 04:40:05;;;;;;;0.90;0.32;;;1.30;1.00;;;;;;6269683;22;20360;-80
2023/11/25 04:42:32;;;;;;;0.22;0.22;;;1.30;1.00;;;;;;6297492;22;20035;-80
2023/11/25 04:44:59;;;;;;;0.77;0.40;;;1.30;1.00;;;;;;6245243;22;20096;-81
2023/11/25 04:47:26;;;;;;;0.55;0.30;;;1.30;1.00;;;;;;6270501;22;20015;-80
2023/11/25 04:49:54;;;;;;;0.47;0.40;;;1.20;1.00;;;;;;6297198;22;20622;-80
2023/11/25 04:52:21;;;;;;;0.60;0.40;;;1.20;1.00;;;;;;6270313;22;20030;-80
2023/11/25 04:54:49;;;;;;;0.52;0.40;;;1.30;1.00;;;;;;6243928;22;20019;-81
2023/11/25 04:57:16;;;;;;;1.40;0.60;;;1.20;1.00;;;;;;6270254;22;20015;-80
2023/11/25 04:59:43;;;;;;;1.10;0.40;;;1.20;1.00;;;;;;6297205;22;20080;-82
2023/11/25 05:02:10;;;;;;;0.30;0.30;;;1.20;1.00;;;;;;6270721;22;20022;-80
2023/11/25 05:04:37;;;;;;;0.80;0.60;;;1.20;4.60;;;;;;6270207;22;20031;-82
2023/11/25 05:07:04;;;;;;;2.03;0.70;;;1.20;7.40;;;;;;6270033;22;20027;-82
2023/11/25 05:09:31;;;;;;;0.98;0.40;;;1.20;10.80;;;;;;6218396;22;20058;-81
2023/11/25 05:11:59;;;;;;;0.43;0.43;;;1.20;13.70;;;;;;6296751;22;20020;-82
2023/11/25 05:14:26;;;;;;;0.60;0.47;;;1.20;14.90;;;;;;6220002;22;20298;-81
2023/11/25 05:16:55;;;;;;;1.20;0.73;;;1.10;16.60;;;;;;6244996;22;20023;-81
2023/11/25 05:19:23;;;;;;;1.60;0.70;;;1.10;20.10;;;;;;6220312;22;20019;-82
2023/11/25 05:21:50;;;;;;;2.35;0.68;;;1.10;23.60;;;;;;6244305;22;20094;-83
2023/11/25 05:24:17;;;;;;;0.98;0.40;;;1.10;26.00;;;;;;6268566;22;20023;-81
2023/11/25 05:26:45;;;;;;;0.40;0.40;;;1.10;26.40;;;;;;6244840;22;20073;-82
2023/11/25 05:29:11;;;;;;;0.75;0.63;;;1.10;31.40;;;;;;6297452;22;20077;-82
2023/11/25 05:31:38;;;;;;;0.75;0.40;;;1.10;30.10;;;;;;6269939;22;20019;-82
2023/11/25 05:34:06;;;;;;;1.00;0.50;;;1.00;31.80;;;;;;6245098;22;20049;-82
2023/11/25 05:36:32;;;;;;;0.60;0.30;;;1.00;36.10;;;;;;6243900;22;20026;-82
2023/11/25 05:39:06;;;;;;;0.32;0.28;;;1.00;39.60;;;;;;6268551;22;20015;-82
2023/11/25 05:41:37;;;;;;;0.47;0.40;;;1.00;42.10;;;;;;6296707;22;20187;-82
2023/11/25 05:44:07;;;;;;;0.40;0.40;;;0.90;45.50;;;;;;6221450;22;20027;-82
2023/11/25 05:46:34;;;;;;;0.50;0.30;;;0.90;51.80;;;;;;6245523;22;20015;-81
2023/11/25 05:49:02;;;;;;;0.50;0.50;;;0.90;66.10;;;;;;6219328;22;20080;-82
2023/11/25 05:51:32;;;;;;;0.50;0.38;;;0.80;70.60;;;;;;6269247;22;20019;-82
2023/11/25 05:53:59;;;;;;;1.70;0.40;;;0.80;75.30;;;;;;6267707;22;20023;-82
2023/11/25 05:56:29;;;;;;;0.38;0.38;;;0.80;91.70;;;;;;6269658;22;20030;-82
2023/11/25 05:58:56;;;;;;;0.50;0.40;;;0.80;96.30;;;;;;6269997;22;20019;-82
2023/11/25 06:01:23;;;;;;;0.30;0.30;;;0.80;97.00;;;;;;6269443;22;20489;-82
2023/11/25 06:03:50;;;;;;;0.52;0.30;;;0.70;99.90;;;;;;6238894;22;20106;-82
2023/11/25 06:06:21;;;;;;;0.45;0.30;;;0.70;99.90;;;;;;6291358;22;20015;-83
2023/11/25 06:08:49;;;;;;;0.20;0.20;;;0.70;99.90;;;;;;6240172;22;20031;-82
2023/11/25 06:11:20;;;;;;;0.20;0.20;;;0.70;99.90;;;;;;6239182;22;20026;-81
2023/11/25 06:13:47;;;;;;;0.28;0.28;;;0.60;99.90;;;;;;6292916;22;20026;-81
2023/11/25 06:16:14;;;;;;;0.30;0.30;;;0.70;99.90;;;;;;6215408;22;20591;-81
2023/11/25 06:18:42;;;;;;;0.55;0.30;;;0.60;99.90;;;;;;6266459;22;20110;-82
2023/11/25 06:21:08;;;;;;;0.57;0.40;;;0.60;99.90;;;;;;6214603;22;20543;-82
2023/11/25 06:23:35;;;;;;;0.20;0.20;;;0.60;99.90;;;;;;6263708;22;20078;-81
2023/11/25 06:26:02;;;;;;;0.20;0.20;;;0.50;99.90;;;;;;6239809;22;20077;-81
2023/11/25 06:28:29;;;;;;;0.55;0.30;;;0.50;99.90;;;;;;6214733;22;20027;-82
2023/11/25 06:30:56;;;;;;;0.20;0.20;;;0.50;99.90;;;;;;6241841;22;20474;-82
2023/11/25 06:33:29;;;;;;;0.55;0.30;;;0.50;99.90;;;;;;6216688;22;20027;-81
2023/11/25 06:35:56;;;;;;;0.98;0.30;;;0.50;99.90;;;;;;6294526;22;20370;-81
2023/11/25 06:38:23;;;;;;;1.25;0.30;;;0.50;99.90;;;;;;6240466;22;20023;-81
2023/11/25 06:40:50;;;;;;;0.47;0.28;;;0.50;99.90;;;;;;6267553;22;20019;-81
2023/11/25 06:43:17;;;;;;;0.30;0.25;;;0.40;99.90;;;;;;6241288;22;20019;-82
2023/11/25 06:45:45;;;;;;;0.73;0.30;;;0.40;99.90;;;;;;6242399;22;20023;-82
2023/11/25 06:48:13;;;;;;;0.30;0.28;;;0.40;99.90;;;;;;6216893;22;20027;-81
2023/11/25 06:50:40;;;;;;;0.30;0.30;;;0.40;99.90;;;;;;6241235;22;20699;-81
2023/11/25 06:53:07;;;;;;;0.28;0.25;;;0.40;99.90;;;;;;6213717;22;20187;-79
2023/11/25 06:55:34;;;;;;;0.82;0.40;;;0.40;99.90;;;;;;6267042;22;20035;-79
2023/11/25 06:58:03;;;;;;;0.32;0.30;;;0.40;99.90;;;;;;6216502;22;20108;-78
2023/11/25 07:00:33;;;;;;;0.70;0.50;;;0.40;99.90;;;;;;6241757;22;20029;-79
2023/11/25 07:03:00;;;;;;;0.50;0.35;;;0.40;99.90;;;;;;6240981;22;20141;-80
2023/11/25 07:05:27;;;;;;;0.35;0.30;;;0.40;99.90;;;;;;6240815;22;20569;-81
2023/11/25 07:07:54;;;;;;;0.50;0.50;;;0.40;99.90;;;;;;6291280;22;20027;-80
2023/11/25 07:10:21;;;;;;;0.40;0.30;;;0.40;99.90;;;;;;6293859;22;20080;-80
2023/11/25 07:12:49;;;;;;;1.67;0.50;;;0.40;99.90;;;;;;6215073;22;20024;-80
2023/11/25 07:15:16;;;;;;;0.28;0.28;;;0.40;99.90;;;;;;6266674;22;20042;-78
2023/11/25 07:17:43;;;;;;;0.50;0.43;;;0.50;99.90;;;;;;6293513;22;20061;-79
2023/11/25 07:20:11;;;;;;;0.77;0.50;;;0.50;99.90;;;;;;6266646;22;20023;-78
2023/11/25 07:22:40;;;;;;;1.05;0.47;;;0.50;99.90;;;;;;6265208;22;20018;-80
2023/11/25 07:25:11;;;;;;;0.32;0.32;;;0.50;99.90;;;;;;6266244;22;20075;-79
2023/11/25 07:27:44;;;;;;;0.63;0.30;;;0.50;99.90;;;;;;6217063;22;20090;-79
2023/11/25 07:30:12;;;;;;;0.45;0.38;;;0.40;99.90;;;;;;6268632;22;20061;-80
2023/11/25 07:32:40;;;;;;;0.85;0.55;;;0.50;99.90;;;;;;6265832;22;20019;-79
2023/11/25 07:35:07;;;;;;;0.43;0.40;;;0.50;99.90;;;;;;6266792;22;20455;-80
2023/11/25 07:37:35;;;;;;;0.55;0.43;;;0.50;99.90;;;;;;6240302;22;20681;-82
2023/11/25 07:40:15;;;;;;;0.40;0.30;;;0.50;99.90;;;;;;6238285;22;20084;-79
2023/11/25 07:42:45;;;;;;;0.75;0.50;;;0.50;99.90;;;;;;6243277;22;20058;-79
2023/11/25 07:45:13;;;;;;;0.75;0.40;;;0.50;99.90;;;;;;6293392;22;20051;-79
2023/11/25 07:47:43;;;;;;;0.20;0.20;;;0.50;99.90;;;;;;6261426;22;20054;-77
2023/11/25 07:50:11;;;;;;;0.50;0.30;;;0.50;99.90;;;;;;6237281;22;20027;-78
2023/11/25 07:52:39;;;;;;;0.20;0.20;;;0.50;99.90;;;;;;6235982;22;20019;-77
2023/11/25 07:55:08;;;;;;;0.45;0.45;;;0.60;99.90;;;;;;6290099;22;20331;-76
2023/11/25 07:57:37;;;;;;;0.80;0.45;;;0.60;99.90;;;;;;6235726;22;20104;-77
2023/11/25 08:00:07;;;;;;;0.75;0.60;;;0.60;99.90;;;;;;6262089;22;20084;-76
2023/11/25 08:02:34;;;;;;;0.75;0.60;;;0.60;99.90;;;;;;6235391;22;20027;-76
2023/11/25 08:05:03;;;;;;;2.08;0.70;;;0.60;99.90;;;;;;6289266;22;20035;-78
2023/11/25 08:07:30;;;;;;;0.55;0.40;;;0.70;99.90;;;;;;6235615;22;20030;-77
2023/11/25 08:09:57;;;;;;;1.08;0.57;;;0.80;99.90;;;;;;6235898;22;20026;-77
2023/11/25 08:12:24;;;;;;;1.20;0.70;;;0.80;99.90;;;;;;6263272;22;20392;-77
2023/11/25 08:14:52;;;;;;;0.63;0.50;;;0.80;99.90;;;;;;6237245;22;20020;-77
2023/11/25 08:17:20;;;;;;;0.55;0.50;;;0.80;99.90;;;;;;6262972;22;20034;-77
2023/11/25 08:19:46;;;;;;;0.45;0.45;;;0.80;99.90;;;;;;6212372;22;20023;-77
2023/11/25 08:22:13;;;;;;;0.57;0.57;;;0.80;99.90;;;;;;6237491;22;20415;-77
2023/11/25 08:24:40;;;;;;;0.88;0.50;;;0.90;99.90;;;;;;6211850;22;20027;-77
2023/11/25 08:27:07;;;;;;;0.68;0.50;;;0.90;99.90;;;;;;6262534;22;20026;-77
2023/11/25 08:29:35;;;;;;;0.95;0.65;;;0.90;99.90;;;;;;6289379;22;20399;-77
2023/11/25 08:32:02;;;;;;;0.85;0.70;;;1.00;99.90;;;;;;6263135;22;20030;-77
2023/11/25 08:34:28;;;;;;;0.50;0.50;;;1.00;99.90;;;;;;6262616;22;20130;-77
2023/11/25 08:36:55;;;;;;;0.40;0.40;;;1.00;99.90;;;;;;6261750;22;20029;-78
2023/11/25 08:39:25;;;;;;;1.52;0.60;;;1.10;99.90;;;;;;6260568;22;20027;-80
2023/11/25 08:41:53;;;;;;;1.63;0.88;;;1.10;99.90;;;;;;6289902;22;20027;-80
2023/11/25 08:44:20;;;;;;;0.75;0.55;;;1.10;99.90;;;;;;6287046;22;20062;-77
2023/11/25 08:46:48;;;;;;;1.20;0.93;;;1.10;99.90;;;;;;6262862;22;20081;-77
2023/11/25 08:49:16;;;;;;;2.35;0.95;;;1.20;99.90;;;;;;6237325;22;20029;-77
2023/11/25 08:51:46;;;;;;;1.90;0.90;;;1.30;99.90;;;;;;6237034;22;20023;-77
2023/11/25 08:54:14;;;;;;;1.92;0.95;;;1.30;99.90;;;;;;6260762;22;20429;-76
2023/11/25 08:56:45;;;;;;;2.97;1.23;;;1.30;99.90;;;;;;6212308;22;20353;-77
2023/11/25 08:59:18;;;;;;;1.50;1.23;;;1.40;99.90;;;;;;6238262;22;20031;-76
2023/11/25 09:01:47;;;;;;;2.03;0.95;;;1.40;99.90;;;;;;6262653;22;20471;-77
2023/11/25 09:04:19;;;;;;;2.10;1.00;;;1.40;99.90;;;;;;6237628;22;20023;-77
2023/11/25 09:06:47;;;;;;;2.95;0.82;;;1.50;99.90;;;;;;6214148;22;20051;-77
2023/11/25 09:09:19;;;;;;;1.05;0.70;;;1.60;99.30;;;;;;6235852;22;20037;-76
2023/11/25 09:11:48;;;;;;;1.38;0.90;;;1.60;92.50;;;;;;6236869;22;20019;-78
2023/11/25 09:14:16;;;;;;;0.63;0.50;;;1.70;82.70;;;;;;6212033;22;20090;-77
2023/11/25 09:16:43;;;;;;;1.13;0.60;;;1.70;68.10;;;;;;6262693;22;20023;-77
2023/11/25 09:19:12;;;;;;;0.43;0.43;;;1.80;56.80;;;;;;6212192;22;20058;-78
2023/11/25 09:21:41;;;;;;;1.77;0.80;;;1.80;43.70;;;;;;6262963;22;20027;-78
2023/11/25 09:24:08;;;;;;;0.95;0.80;;;1.90;34.70;;;;;;6235851;22;20129;-78
2023/11/25 09:26:35;;;;;;;1.17;0.68;;;2.00;25.70;;;;;;6235844;22;20038;-78
2023/11/25 09:29:01;;;;;;;0.43;0.32;;;2.00;19.60;;;;;;6262166;22;20835;-77
2023/11/25 09:31:28;;;;;;;0.90;0.68;;;2.10;10.10;;;;;;6262847;22;20497;-78
2023/11/25 09:33:56;;;;;;;1.30;0.70;;;2.10;4.30;;;;;;6262232;22;20033;-82
2023/11/25 09:36:24;;;;;;;0.82;0.50;;;2.10;1.00;;;;;;6288869;22;20026;-77
2023/11/25 09:38:52;;;;;;;1.70;0.70;;;2.20;1.00;;;;;;6260766;22;20404;-76
2023/11/25 09:41:18;;;;;;;1.45;0.70;;;2.20;1.00;;;;;;6262432;22;20080;-76
2023/11/25 09:43:46;;;;;;;2.22;0.70;;;2.30;1.00;;;;;;6287437;22;20023;-77
2023/11/25 09:46:13;;;;;;;1.20;0.80;;;2.30;1.00;;;;;;6236966;22;20058;-77
2023/11/25 09:48:40;;;;;;;2.10;0.80;;;2.40;1.00;;;;;;6236596;22;20546;-78
2023/11/25 09:51:08;;;;;;;1.92;1.02;;;2.40;1.00;;;;;;6236175;22;20076;-79
2023/11/25 09:53:36;;;;;;;3.17;1.17;;;2.40;1.00;;;;;;6234806;22;20765;-80
2023/11/25 09:56:06;;;;;;;2.30;0.90;;;2.50;1.00;;;;;;6212233;22;20061;-79
2023/11/25 09:58:34;;;;;;;2.75;1.20;;;2.50;1.00;;;;;;6261222;22;20029;-77
2023/11/25 10:01:05;;;;;;;0.80;0.60;;;2.60;1.00;;;;;;6285538;22;20031;-77
2023/11/25 10:03:34;;;;;;;1.35;0.80;;;2.60;1.00;;;;;;6259510;22;20026;-77
2023/11/25 10:06:02;;;;;;;1.20;0.70;;;2.70;1.00;;;;;;6255861;22;20800;-77
2023/11/25 10:08:29;;;;;;;1.40;0.70;;;2.70;1.00;;;;;;6285034;22;20566;-74
2023/11/25 10:11:07;;;;;;;1.83;0.82;;;2.80;1.00;;;;;;6286277;22;20023;-74
2023/11/25 10:13:35;;;;;;;2.40;0.85;;;2.90;1.00;;;;;;6209483;22;20530;-76
2023/11/25 10:16:03;;;;;;;1.80;0.80;;;2.90;1.00;;;;;;6233608;22;20038;-76
2023/11/25 10:18:30;;;;;;;1.48;0.73;;;3.00;1.00;;;;;;6233773;22;20329;-76
2023/11/25 10:20:58;;;;;;;1.02;0.65;;;3.00;1.00;;;;;;6234272;22;20034;-74
2023/11/25 10:23:25;;;;;;;0.40;0.40;;;3.00;1.00;;;;;;6257378;22;20100;-76
2023/11/25 10:25:52;;;;;;;1.52;1.00;;;3.10;1.00;;;;;;6259366;22;20038;-74
2023/11/25 10:28:25;;;;;;;3.25;0.88;;;3.20;1.00;;;;;;6234127;22;20030;-77
2023/11/25 10:30:54;;;;;;;1.38;0.70;;;3.20;1.00;;;;;;6259844;22;20023;-76
2023/11/25 10:33:24;;;;;;;2.35;1.00;;;3.30;1.00;;;;;;6234052;22;20023;-74
2023/11/25 10:35:52;;;;;;;2.63;0.93;;;3.30;1.00;;;;;;6285860;22;20063;-77
2023/11/25 10:38:22;;;;;;;1.33;0.90;;;3.40;1.00;;;;;;6283873;22;20023;-77
2023/11/25 10:40:49;;;;;;;1.65;1.00;;;3.40;1.00;;;;;;6286574;22;20105;-76
2023/11/25 10:43:19;;;;;;;1.55;0.90;;;3.50;1.00;;;;;;6258637;22;20102;-75
2023/11/25 10:45:48;;;;;;;2.45;1.10;;;3.50;1.00;;;;;;6259166;22;20750;-75
2023/11/25 10:48:15;;;;;;;1.83;1.13;;;3.60;1.00;;;;;;6286106;22;20536;-76
2023/11/25 10:50:43;;;;;;;1.60;0.70;;;3.60;1.00;;;;;;6233983;22;20154;-75
2023/11/25 10:53:13;;;;;;;2.15;0.85;;;3.60;1.00;;;;;;6257703;22;20023;-75
2023/11/25 10:55:42;;;;;;;2.08;1.20;;;3.70;1.00;;;;;;6286661;22;20126;-75
2023/11/25 10:58:11;;;;;;;4.65;1.40;;;3.70;1.00;;;;;;6259362;22;20046;-75
2023/11/25 11:00:38;;;;;;;1.75;0.88;;;3.80;1.00;;;;;;6284577;22;20524;-75
2023/11/25 11:03:08;;;;;;;1.83;0.90;;;3.80;1.00;;;;;;6232636;22;20536;-74
2023/11/25 11:05:44;;;;;;;2.42;1.10;;;3.90;1.00;;;;;;6231720;22;20100;-74
2023/11/25 11:08:31;;;;;;;1.33;0.88;;;4.00;1.00;;;;;;6284955;22;20092;-75
2023/11/25 11:11:00;;;;;;;2.33;1.15;;;4.00;1.00;;;;;;6237940;22;20026;-77
2023/11/25 11:13:31;;;;;;;3.45;1.20;;;4.20;1.00;;;;;;6233457;22;20363;-77
2023/11/25 11:16:00;;;;;;;2.17;1.20;;;4.20;1.00;;;;;;6286950;22;20023;-76
2023/11/25 11:18:30;;;;;;;2.22;1.27;;;4.40;1.00;;;;;;6287567;22;20019;-78
2023/11/25 11:20:57;;;;;;;2.63;1.30;;;4.40;1.00;;;;;;6211830;22;20123;-77
2023/11/25 11:23:25;;;;;;;6.72;2.65;;;4.50;1.00;;;;;;6259069;22;20119;-77
2023/11/25 11:25:58;;;;;;;3.65;1.95;;;4.50;1.00;;;;;;6235613;22;20027;-78
2023/11/25 11:28:43;;;;;;;2.97;1.83;;;4.50;1.00;;;;;;6288044;22;20015;-79
2023/11/25 11:31:28;;;;;;;2.67;1.33;;;4.60;1.00;;;;;;6260939;22;20027;-78
2023/11/25 11:33:55;;;;;;;2.95;1.48;;;4.70;1.00;;;;;;6262254;22;20027;-76
2023/11/25 11:36:29;;;;;;;5.13;1.60;;;4.80;1.00;;;;;;6209381;22;20094;-76
2023/11/25 11:38:56;;;;;;;4.15;1.55;;;4.80;1.00;;;;;;6234420;22;20029;-78
2023/11/25 11:41:24;;;;;;;2.35;1.38;;;5.00;1.00;;;;;;6235989;22;20035;-77
2023/11/25 11:44:01;;;;;;;1.75;0.85;;;5.10;1.00;;;;;;6258738;22;20033;-77
2023/11/25 11:46:29;;;;;;;3.35;1.58;;;5.20;1.00;;;;;;6287421;22;20026;-78
2023/11/25 11:48:55;;;;;;;2.80;1.02;;;5.30;1.00;;;;;;6234991;22;20054;-78
2023/11/25 11:51:25;;;;;;;2.80;1.10;;;5.40;1.00;;;;;;6259696;22;20023;-78
2023/11/25 11:54:23;;;;;;;1.95;1.10;;;5.50;1.00;;;;;;6284872;22;20030;-78
2023/11/25 11:57:03;;;;;;;2.65;1.05;;;5.70;1.00;;;;;;6248272;22;20905;-77
2023/11/25 11:59:57;;;;;;;2.88;1.30;;;5.80;1.00;;;;;;6261294;22;20031;-76
2023/11/25 12:02:28;;;;;;;5.60;1.70;;;6.00;1.00;;;;;;6261075;22;20030;-78
2023/11/25 12:04:58;;;;;;;2.65;1.35;;;6.10;1.00;;;;;;6287742;22;20023;-77
2023/11/25 12:07:26;;;;;;;4.05;1.50;;;6.30;1.00;;;;;;6259544;22;20611;-77
2023/11/25 12:09:57;;;;;;;1.58;1.30;;;6.50;1.00;;;;;;6260846;22;20544;-78
2023/11/25 12:12:24;;;;;;;1.88;1.33;;;6.70;1.00;;;;;;6235421;22;20019;-77
2023/11/25 12:14:51;;;;;;;2.92;1.50;;;6.90;1.00;;;;;;6235938;22;20342;-77
2023/11/25 12:17:21;;;;;;;3.10;1.55;;;6.90;1.00;;;;;;6261840;22;20042;-77
2023/11/25 12:19:48;;;;;;;2.78;1.20;;;7.00;1.00;;;;;;6210659;22;20085;-78
2023/11/25 12:22:15;;;;;;;3.50;1.40;;;7.10;1.00;;;;;;6233737;22;20041;-78
2023/11/25 12:24:42;;;;;;;2.85;1.42;;;7.20;1.00;;;;;;6209069;22;20565;-78
2023/11/25 12:27:13;;;;;;;5.25;1.52;;;7.40;1.00;;;;;;6236312;22;20027;-78
2023/11/25 12:29:39;;;;;;;2.08;0.95;;;7.40;1.00;;;;;;6210538;22;20030;-78
2023/11/25 12:32:06;;;;;;;4.40;1.45;;;7.50;1.00;;;;;;6260286;22;20023;-79
2023/11/25 12:34:33;;;;;;;2.50;1.40;;;7.50;1.00;;;;;;6260691;22;20088;-78
2023/11/25 12:37:00;;;;;;;2.83;1.58;;;7.80;1.00;;;;;;6234308;22;20553;-78
2023/11/25 12:39:27;;;;;;;2.40;1.13;;;8.00;1.00;;;;;;6236032;22;20862;-78
2023/11/25 12:41:54;;;;;;;2.88;1.23;;;8.10;1.00;;;;;;6262849;22;20026;-78
2023/11/25 12:44:22;;;;;;;2.00;1.30;;;8.20;1.00;;;;;;6287114;22;20027;-78
2023/11/25 12:47:03;;;;;;;2.50;1.48;;;8.30;1.00;;;;;;6236910;22;20599;-78
2023/11/25 12:49:31;;;;;;;2.20;1.33;;;8.40;1.00;;;;;;6237138;22;20466;-78
2023/11/25 12:51:58;;;;;;;1.75;1.00;;;8.40;1.00;;;;;;6237016;22;20023;-78
2023/11/25 12:54:25;;;;;;;1.80;1.25;;;8.60;1.00;;;;;;6234879;22;20035;-78
2023/11/25 12:56:53;;;;;;;2.30;1.15;;;8.60;1.00;;;;;;6235931;22;20026;-78
2023/11/25 12:59:28;;;;;;;2.15;1.13;;;8.60;1.00;;;;;;6236756;22;20031;-78
2023/11/25 13:02:22;;;;;;;3.22;1.58;;;8.60;1.00;;;;;;6212141;22;20023;-78
2023/11/25 13:04:49;;;;;;;;;;;8.50;1.00;;;;;;6257027;22;20452;-78
2023/11/25 13:07:34;;;;;;;3.45;1.55;;;8.40;1.00;;;;;;6289685;22;19954;-78
2023/11/25 13:10:02;;;;;;;2.50;1.40;;;8.50;1.00;;;;;;6261600;22;20028;-78
2023/11/25 13:12:30;;;;;;;2.40;1.23;;;8.70;1.00;;;;;;6289231;22;20068;-79